Portland, Oregon
Traffic Map
Current Weather Conditions
Portland, Oregon
Broken Clouds
Broken Clouds
17°
Feels Like: 17°
Wind Chill: 17° Ceiling: 3000
Heat Index: 17° Visibility: 10mi
Dew Point: 12° Wind: 14mph
Humidity: 72% Direction: 180° (S)
Pressure: 29.79in Gusts: 0mph
Raw Report DataKPDX 202153Z 18012KT 10SM SCT023 BKN030 BKN090 17/12 A2979 RMK AO2 SLP088 T01720122
Traffic Incident Summary
Active as of:
Severity:
Category:
InformationThere was an issue retrieving the traffic information for this location. Please try a different location or try again shortly.
Advertisements
Track Severe Weather on mobile